Portada
METAR-TAF:

METAR-TAF

Aeropuertos :

Hamadán, Irán

latitud: 34-52-05N, longitud: 048-33-08E, altitud: 1757 m

Observación

El informe se hizo hace 11 horas y 27 minutos, a las 12:00 UTC
Viento 8 kt del norte-noreste
Temperatura 1°C
Humedad 59%
Presión 1013 hPa
Visibilidad 10 km o más
Escasas nubes a una altura de 4000 ft
Nubes dispersas a una altura de 20000 ft

METAR: OIHH 241200Z 02008KT 9999 FEW040 SCT200 01/M06 Q1013

Hora: 02:57 (23:27 UTC)


TAF: falta

Observaciones y pronósticos meteorológicos de más de 4000 aeropuertos (mensajes METAR y TAF).

Los puntos amarillos y rojos representan las estaciones disponibles.

Ponga el ratón en el punto deseado para ver el nombre de la estación.

Haga clic para ver las observaciones y los pronósticos meteorológicos.

Para cambiar el mapa : haga clic en los botones verdes con una cruz de color negro para hacer un zoom, en el botón verde con un guión para alejar o en las flechas verdes para mapas adyacentes.


METAR-TAF: